Flight Track Log - Related Links

Times and Time Zones

All times are in EDT time to prevent confusion due to time zone crossing. See the BWA481 flight status page for this flight to view local times or setup timezone preferences in your user account.

Time Position Orientation Groundspeed Altitude Reporting Facility
EDT Latitude Longitude Course Direction KTS MPH feet Rate Location/Type
Mon 06:48:05 PM 26.0750 -80.1297 89° East 177 204 800  Level Miami Center
Mon 06:49:37 PM 26.0772 -80.0303 89° East 257 296 3,700 1,451 Climbing Miami Center
Mon 06:50:38 PM 26.0792 -79.9472 88° East 266 306 4,500 1,785 Climbing Miami Center
Mon 06:52:15 PM 26.0839 -79.8153 88° East 296 341 8,400 2,331 Climbing Miami Center
Mon 06:53:15 PM 26.0628 -79.7269 105° East 296 341 10,600 2,100 Climbing Miami Center
Mon 06:54:15 PM 26.0353 -79.6222 106° East 316 364 12,600 2,500 Climbing Miami Center
Mon 06:55:15 PM 26.0061 -79.5106 106° East 348 400 15,600 2,950 Climbing Miami Center
Mon 06:56:15 PM 25.9789 -79.4014 105° East 369 425 18,500 2,500 Climbing Miami Center
Mon 06:57:15 PM 25.9600 -79.2717 99° East 374 430 20,600 1,850 Climbing Miami Center
Mon 06:58:15 PM 25.9472 -79.1628 97° East 391 450 22,200 1,700 Climbing Miami Center
Mon 06:59:15 PM 25.8969 -79.0439 115° Southeast 396 456 24,000 1,850 Climbing Miami Center
Mon 07:00:15 PM 25.8278 -78.9158 121° Southeast 412 474 25,900 1,750 Climbing Miami Center
Mon 07:01:15 PM 25.7603 -78.7947 122° Southeast 442 509 27,500 1,550 Climbing Miami Center
Mon 07:02:15 PM 25.6931 -78.6736 122° Southeast 454 522 29,000 1,350 Climbing Miami Center
Mon 07:03:15 PM 25.6256 -78.5483 121° Southeast 466 536 30,200 1,000 Climbing Miami Center
Mon 07:04:15 PM 25.5578 -78.4206 120° Southeast 476 548 31,000 1,100 Climbing Miami Center
Mon 07:05:15 PM 25.4883 -78.2883 120° Southeast 481 554 32,400 1,450 Climbing Miami Center
Mon 07:06:15 PM 25.4183 -78.1564 120° Southeast 486 559 33,900 1,300 Climbing Miami Center
Mon 07:07:15 PM 25.3483 -78.0292 121° Southeast 486 559 35,000 1,050 Climbing Miami Center
Mon 07:08:15 PM 25.2761 -77.9067 123° Southeast 486 559 36,000 900 Climbing Miami Center
Mon 07:09:15 PM 25.2061 -77.7753 120° Southeast 486 559 36,800 500 Climbing Miami Center
Mon 07:10:15 PM 25.1336 -77.6461 122° Southeast 491 565 37,000 100 Climbing Miami Center
Mon 07:11:15 PM 25.0611 -77.5128 121° Southeast 497 572 37,000  Level Miami Center
Mon 07:12:15 PM 24.9864 -77.3792 122° Southeast 497 572 37,000  Level Miami Center
Mon 07:13:15 PM 24.9136 -77.2483 122° Southeast 503 579 37,000  Level Miami Center
Mon 07:14:15 PM 24.8408 -77.1222 122° Southeast 498 573 37,000  Level Miami Center
Mon 07:15:15 PM 24.7678 -76.9917 122° Southeast 498 573 37,000  Level Miami Center
Mon 07:16:15 PM 24.6947 -76.8633 122° Southeast 498 573 37,000  Level Miami Center
Mon 07:17:15 PM 24.6236 -76.7353 121° Southeast 498 573 37,000  Level Miami Center
Mon 07:18:15 PM 24.5481 -76.6053 123° Southeast 503 579 37,000  Level Miami Center
Mon 07:19:15 PM 24.4767 -76.4731 121° Southeast 503 579 37,000  Level Miami Center
Mon 07:20:15 PM 24.4094 -76.3636 124° Southeast 503 579 37,000  Level Miami Center
Mon 07:21:15 PM 24.3381 -76.2317 121° Southeast 503 579 37,000  Level Miami Center
Mon 07:22:15 PM 24.2642 -76.1019 122° Southeast 503 579 37,000  Level Miami Center
Mon 07:23:15 PM 24.1903 -75.9750 123° Southeast 503 579 37,000  Level Miami Center
Mon 07:24:15 PM 24.1164 -75.8481 123° Southeast 503 579 37,000  Level Miami Center
Mon 07:25:15 PM 24.0444 -75.7211 122° Southeast 498 573 37,000  Level Miami Center
Mon 07:26:15 PM 23.9703 -75.5944 123° Southeast 498 573 37,000  Level Miami Center
Mon 07:27:15 PM 23.8961 -75.4703 123° Southeast 498 573 37,000  Level Miami Center
Mon 07:28:15 PM 23.8258 -75.3414 121° Southeast 498 573 37,000  Level Miami Center
Mon 07:29:15 PM 23.7514 -75.2153 123° Southeast 498 573 37,000  Level Miami Center
Mon 07:30:15 PM 23.6767 -75.0914 123° Southeast 498 573 37,000  Level Miami Center
Mon 07:31:15 PM 23.6022 -74.9656 123° Southeast 498 573 37,000  Level Miami Center
Mon 07:32:15 PM 23.5208 -74.8286 123° Southeast 498 573 37,000  Level Miami Center
Mon 07:33:15 PM 23.4439 -74.7031 124° Southeast 498 573 37,000  Level Miami Center
Mon 07:34:15 PM 23.3753 -74.5797 121° Southeast 497 572 37,000  Level Miami Center
Mon 07:35:15 PM 23.3000 -74.4544 123° Southeast 497 572 37,000  Level Miami Center
Mon 07:36:15 PM 23.2269 -74.3314 123° Southeast 497 572 37,000  Level Miami Center
Mon 07:37:15 PM 23.1517 -74.2064 123° Southeast 492 566 37,000  Level Miami Center
Mon 07:38:15 PM 23.0806 -74.0858 123° Southeast 484 557 37,000  Level Miami Center
Mon 07:39:15 PM 23.0072 -73.9611 123° Southeast 484 557 37,000  Level Miami Center
Mon 07:40:15 PM 22.9297 -73.8389 125° Southeast 484 557 37,000  Level Miami Center
Mon 07:41:15 PM 22.8561 -73.7144 123° Southeast 489 563 37,000  Level Miami Center
Mon 07:42:15 PM 22.7803 -73.5900 123° Southeast 489 563 37,000  Level Miami Center
Mon 07:43:15 PM 22.7047 -73.4706 124° Southeast 489 563 37,000  Level Miami Center
Mon 07:44:15 PM 22.6350 -73.3442 121° Southeast 489 563 37,000  Level Miami Center
Mon 07:45:15 PM 22.5547 -73.2203 125° Southeast 494 568 37,000  Level Miami Center
Mon 07:46:15 PM 22.4850 -73.0986 122° Southeast 494 568 37,000  Level Miami Center
Mon 07:47:15 PM 22.4108 -72.9728 123° Southeast 489 563 37,000  Level Miami Center
Mon 07:48:15 PM 22.3344 -72.8517 124° Southeast 494 568 37,000  Level Miami Center
Mon 07:49:15 PM 22.2603 -72.7283 123° Southeast 494 568 37,000  Level Miami Center
Mon 07:50:15 PM 22.1836 -72.6031 123° Southeast 494 568 37,000  Level Miami Center
Mon 07:51:15 PM 22.1092 -72.4800 123° Southeast 494 568 37,000  Level Miami Center
Mon 07:52:15 PM 22.0325 -72.3550 123° Southeast 494 568 37,000  Level Miami Center
Mon 07:53:15 PM 21.9581 -72.2344 124° Southeast 494 568 37,000  Level Miami Center
Mon 07:54:15 PM 21.8811 -72.1119 124° Southeast 494 568 37,000  Level Miami Center
Mon 07:55:15 PM 21.8042 -71.9872 124° Southeast 494 568 37,000  Level Miami Center
Mon 07:56:15 PM 21.7272 -71.8672 125° Southeast 494 568 37,000  Level Miami Center
Mon 07:57:15 PM 21.6522 -71.7428 123° Southeast 494 568 37,000  Level Miami Center
Mon 07:58:15 PM 21.5750 -71.6208 124° Southeast 494 568 37,000  Level Miami Center
Mon 07:59:15 PM 21.4978 -71.4989 124° Southeast 494 568 37,000  Level Miami Center
Mon 08:00:15 PM 21.4183 -71.3775 125° Southeast 494 568 37,000  Level Miami Center
Mon 08:01:15 PM 21.3350 -71.2583 127° Southeast 500 575 37,000  Level Miami Center
Mon 08:02:15 PM 21.2592 -71.1281 122° Southeast 513 590 37,000  Level Miami Center
Mon 08:03:15 PM 21.1836 -71.0044 123° Southeast 508 585 37,000  Level Miami Center
Mon 08:04:15 PM 21.1081 -70.8833 124° Southeast 497 572 37,000  Level Miami Center
Mon 08:05:15 PM 21.0347 -70.7644 123° Southeast 492 566 37,000  Level Miami Center
Mon 08:06:15 PM 20.9569 -70.6436 125° Southeast 492 566 37,000  Level Miami Center
Mon 08:07:15 PM 20.8811 -70.5253 124° Southeast 487 560 37,000  Level Miami Center
Mon 08:08:15 PM 20.8033 -70.4069 125° Southeast 487 560 37,000  Level Miami Center
Mon 08:09:15 PM 20.7275 -70.2886 124° Southeast 487 560 37,000  Level Miami Center
Mon 08:10:15 PM 20.6514 -70.1683 124° Southeast 487 560 37,000  Level Miami Center
Mon 08:11:15 PM 20.5756 -70.0503 124° Southeast 487 560 37,000  Level Miami Center
Mon 08:12:15 PM 20.4975 -69.9328 125° Southeast 487 560 37,000  Level Miami Center
Mon 08:13:15 PM 20.4192 -69.8150 125° Southeast 487 560 37,000  Level Miami Center
Mon 08:14:15 PM 20.3450 -69.6953 123° Southeast 487 560 37,000  Level Miami Center
Mon 08:15:15 PM 20.2667 -69.5778 125° Southeast 487 560 37,000  Level Miami Center
Mon 08:16:15 PM 20.1903 -69.4606 125° Southeast 482 555 37,000  Level Miami Center
Mon 08:17:15 PM 20.1139 -69.3411 124° Southeast 482 555 37,000  Level Miami Center
Mon 08:18:15 PM 20.0353 -69.2267 126° Southeast 482 555 37,000  Level Miami Center
Mon 08:19:15 PM 19.9589 -69.1097 125° Southeast 482 555 37,000  Level Miami Center
Mon 08:20:15 PM 19.8803 -68.9953 126° Southeast 477 549 37,000  Level Miami Center
Mon 08:21:15 PM 19.8036 -68.8764 124° Southeast 482 555 37,000  Level Miami Center
Mon 08:22:15 PM 19.7386 -68.7878 128° Southeast 482 555 37,000  Level Miami Center
Mon 08:23:15 PM 19.6339 -68.6533 130° Southeast 489 563 37,000  Level Miami Center
Mon 08:24:06 PM 19.5667 -68.5667 129° Southeast 490 564 37,000  Level San Juan Center
Mon 08:25:06 PM 19.4833 -68.4500 127° Southeast 490 564 37,000  Level San Juan Center
Mon 08:26:07 PM 19.4000 -68.3333 127° Southeast 490 564 37,000  Level San Juan Center
Mon 08:27:07 PM 19.3167 -68.2167 127° Southeast 490 564 37,000  Level San Juan Center
Mon 08:28:07 PM 19.2333 -68.1000 127° Southeast 490 564 37,000  Level San Juan Center
Mon 08:29:08 PM 19.1500 -67.9833 127° Southeast 490 564 37,000  Level San Juan Center
Mon 08:30:08 PM 19.0667 -67.8833 131° Southeast 490 564 37,000  Level San Juan Center
Mon 08:31:08 PM 18.9833 -67.7833 131° Southeast 470 541 37,000  Level San Juan Center
Mon 08:32:08 PM 18.8667 -67.6833 141° Southeast 480 552 37,000  Level San Juan Center
Mon 08:33:09 PM 18.7667 -67.6000 142° Southeast 480 552 37,000  Level San Juan Center
Mon 08:34:09 PM 18.6667 -67.5000 137° Southeast 480 552 37,000  Level San Juan Center
Mon 08:35:09 PM 18.5667 -67.4000 137° Southeast 490 564 37,000  Level San Juan Center
Mon 08:36:10 PM 18.4667 -67.3167 142° Southeast 490 564 37,000  Level San Juan Center
Mon 08:37:10 PM 18.3667 -67.2167 136° Southeast 490 564 37,000  Level San Juan Center
Mon 08:38:10 PM 18.2667 -67.1167 136° Southeast 490 564 37,000  Level San Juan Center
Mon 08:39:10 PM 18.1667 -67.0167 136° Southeast 490 564 37,000  Level San Juan Center
Mon 08:40:11 PM 18.0667 -66.9333 142° Southeast 490 564 37,000  Level San Juan Center
Mon 08:41:11 PM 17.9333 -66.8167 140° Southeast 480 552 37,000  Level San Juan Center
Mon 08:42:11 PM 17.8333 -66.7333 142° Southeast 480 552 37,000  Level San Juan Center
Mon 08:43:12 PM 17.7500 -66.6333 131° Southeast 480 552 37,000  Level San Juan Center
Mon 08:44:12 PM 17.6500 -66.5333 136° Southeast 480 552 37,000  Level San Juan Center
Mon 08:45:12 PM 17.5500 -66.4500 142° Southeast 480 552 37,000  Level San Juan Center
Mon 08:46:13 PM 17.4500 -66.3500 136° Southeast 480 552 37,000  Level San Juan Center
Mon 08:47:13 PM 17.3500 -66.2667 141° Southeast 480 552 37,000  Level San Juan Center
Mon 08:48:13 PM 17.2500 -66.1667 136° Southeast 480 552 37,000  Level San Juan Center
Mon 08:49:13 PM 17.1500 -66.0833 141° Southeast 480 552 37,000  Level San Juan Center
Mon 08:50:14 PM 17.0500 -65.9833 136° Southeast 480 552 37,000  Level San Juan Center
Mon 08:51:14 PM 16.9500 -65.9000 141° Southeast 480 552 37,000  Level San Juan Center
Mon 08:52:14 PM 16.8500 -65.8000 136° Southeast 480 552 37,000  Level San Juan Center
Mon 08:53:15 PM 16.7500 -65.7167 141° Southeast 480 552 37,000  Level San Juan Center
Mon 08:54:15 PM 16.6500 -65.6167 136° Southeast 470 541 37,000  Level San Juan Center
Mon 08:55:15 PM 16.5500 -65.5333 141° Southeast 470 541 37,000 -50 Level San Juan Center
Mon 08:56:16 PM 16.4500 -65.4333 136° Southeast 470 541 36,900 -545 Descending San Juan Center
Mon 08:57:16 PM 16.3500 -65.3500 141° Southeast 470 541 35,900 -950 Descending San Juan Center
Mon 08:58:16 PM 16.2500 -65.2667 141° Southeast 470 541 35,000 -446 Descending San Juan Center
Mon 08:59:17 PM 16.1500 -65.1667 136° Southeast 460 529 35,000  Level San Juan Center
Mon 09:00:17 PM 16.0333 -65.0833 146° Southeast 460 529 35,000  Level San Juan Center
Mon 09:01:17 PM 15.9500 -65.0000 136° Southeast 460 529 35,000  Level San Juan Center
Mon 09:02:18 PM 15.8500 -64.9167 141° Southeast 460 529 35,000  Level San Juan Center
Mon 09:03:18 PM 15.7500 -64.8333 141° Southeast 470 541 35,000  Level San Juan Center
Mon 09:04:18 PM 15.6667 -64.7333 131° Southeast 480 552 35,000  Level San Juan Center
Mon 09:05:19 PM 15.5667 -64.6333 136° Southeast 480 552 35,000  Level San Juan Center
Mon 09:06:19 PM 15.4667 -64.5500 141° Southeast 470 541 35,000  Level San Juan Center
Mon 09:07:19 PM 15.3667 -64.4667 141° Southeast 470 541 35,000  Level San Juan Center
Mon 09:08:20 PM 15.2667 -64.3667 136° Southeast 470 541 35,000  Level San Juan Center
Mon 09:09:20 PM 15.1667 -64.2833 141° Southeast 470 541 35,000  Level San Juan Center
Mon 09:11:00 PM 15.0079 -64.1413 136° Southeast  Level FlightAware Approximate
Mon 09:18:00 PM 14.2497 -63.6771 149° Southeast  Level FlightAware Approximate
Mon 09:19:00 PM 14.1410 -63.6114 150° Southeast  Level FlightAware Approximate
Mon 09:20:00 PM 14.0315 -63.5474 150° Southeast  Level FlightAware Approximate
Mon 09:21:00 PM 13.9219 -63.4835 150° Southeast  Level FlightAware Approximate
Mon 09:22:00 PM 13.8123 -63.4196 150° Southeast  Level FlightAware Approximate
Mon 09:23:00 PM 13.7026 -63.3558 151° Southeast  Level FlightAware Approximate
Mon 09:24:00 PM 13.5930 -63.2920 151° Southeast  Level FlightAware Approximate
Mon 09:25:00 PM 13.4833 -63.2283 151° Southeast  Level FlightAware Approximate
Mon 09:26:00 PM 13.3737 -63.1647 151° Southeast  Level FlightAware Approximate
Mon 09:27:00 PM 13.2640 -63.1011 151° Southeast  Level FlightAware Approximate
Mon 09:28:00 PM 13.1564 -63.0339 148° Southeast  Level FlightAware Approximate
Mon 09:29:00 PM 13.0496 -62.9653 148° Southeast  Level FlightAware Approximate
Mon 09:30:00 PM 12.9428 -62.8968 148° Southeast  Level FlightAware Approximate
Mon 09:31:00 PM 12.8360 -62.8283 148° Southeast  Level FlightAware Approximate
Mon 09:32:00 PM 12.7292 -62.7599 148° Southeast  Level FlightAware Approximate
Mon 09:33:00 PM 12.6223 -62.6916 148° Southeast  Level FlightAware Approximate
Mon 09:34:00 PM 12.5143 -62.6253 150° Southeast  Level FlightAware Approximate
Mon 09:35:00 PM 12.4057 -62.5600 149° Southeast  Level FlightAware Approximate
Mon 09:36:00 PM 12.2975 -62.4940 149° Southeast  Level FlightAware Approximate
Mon 09:37:00 PM 12.1893 -62.4282 149° Southeast  Level FlightAware Approximate
Mon 09:38:00 PM 12.0810 -62.3623 149° Southeast  Level FlightAware Approximate
Mon 09:39:00 PM 11.9700 -62.3017 154° Southeast  Level FlightAware Approximate
Mon 09:40:00 PM 11.8665 -62.2285 145° Southeast  Level FlightAware Approximate
Mon 09:41:00 PM 11.7603 -62.1595 150° Southeast  Level FlightAware Approximate
Mon 09:42:00 PM 11.6517 -62.0943 150° Southeast  Level FlightAware Approximate
Mon 09:43:00 PM 11.5431 -62.0292 150° Southeast  Level FlightAware Approximate
Mon 09:44:00 PM 11.4347 -61.9637 149° Southeast  Level FlightAware Approximate
Mon 09:45:00 PM 11.3270 -61.8973 149° Southeast  Level FlightAware Approximate
Mon 09:46:00 PM 11.2191 -61.8309 149° Southeast  Level FlightAware Approximate
Mon 09:47:00 PM 11.1113 -61.7646 149° Southeast  Level FlightAware Approximate
Mon 09:48:00 PM 11.0027 -61.6996 151° Southeast  Level FlightAware Approximate
Mon 09:49:00 PM 10.8921 -61.6382 151° Southeast  Level FlightAware Approximate
Mon 09:50:00 PM 10.7812 -61.5776 152° Southeast  Level FlightAware Approximate
Mon 09:51:00 PM 10.6717 -61.5144 147° Southeast  Level FlightAware Approximate
Mon 09:52:00 PM 10.5663 -61.4442 147° Southeast  Level FlightAware Approximate
Mon 09:53:00 PM 10.5954 -61.3372 154° Southeast  Level Estimated
Mon 09:54:00 PM 10.5954 -61.3372 11° North  Level Estimated
Mon 09:55:00 PM 10.5954 -61.3372 11° North  Level Estimated
Mon 09:56:00 PM 10.5954 -61.3372 11° North  Level Estimated
Mon 09:57:00 PM 10.5954 -61.3372 11° North  Level Estimated
Mon 09:58:00 PM 10.5954 -61.3372 11° North  Level Estimated
Mon 09:59:00 PM 10.5954 -61.3372 11° North  Level Estimated
Mon 10:00:00 PM 10.5954 -61.3372 11° North  Level Estimated
Mon 10:01:00 PM 10.5954 -61.3372 11° North  Level Estimated
Mon 10:02:00 PM 10.5954 -61.3372 11° North  Level Estimated
Mon 10:03:00 PM 10.5954 -61.3372 11° North  Level Estimated
Mon 10:04:00 PM 10.5954 -61.3372 11° North  Level Estimated
Mon 10:05:00 PM 10.5954 -61.3372 11° North  Level Estimated
Mon 10:06:00 PM 10.5954 -61.3372 11° North  Level Estimated
Mon 10:07:00 PM 10.5954 -61.3372 11° North  Level Estimated
Mon 10:08:00 PM 10.5954 -61.3372 11° North  Level Estimated
Mon 10:09:00 PM 10.5954 -61.3372 11° North  Level Estimated
Mon 10:10:00 PM 10.5954 -61.3372 11° North  Level Estimated
Mon 10:11:00 PM 10.5954 -61.3372 11° North  Level Estimated
Mon 10:12:00 PM 10.5954 -61.3372 11° North  Level Estimated
Mon 10:13:00 PM 10.5954 -61.3372 11° North  Level Estimated
Mon 10:14:00 PM 10.5954 -61.3372 11° North  Level Estimated

Login

Don't have an account? Register now (free) for customized features, flight alerts, and more!